sensor_id;sensor_type;location;lat;lon;timestamp;P1;durP1;ratioP1;P2;durP2;ratioP2
49840;SDS011;35738;49.890;5.930;2023-03-23T00:01:53;3.67;;;2.75;;
49840;SDS011;35738;49.890;5.930;2023-03-23T00:04:18;3.85;;;3.15;;
49840;SDS011;35738;49.890;5.930;2023-03-23T00:06:45;3.60;;;2.70;;
49840;SDS011;35738;49.890;5.930;2023-03-23T00:09:12;3.63;;;2.75;;
49840;SDS011;35738;49.890;5.930;2023-03-23T00:11:40;3.60;;;2.70;;
49840;SDS011;35738;49.890;5.930;2023-03-23T00:14:07;2.97;;;2.33;;
49840;SDS011;35738;49.890;5.930;2023-03-23T00:16:38;3.88;;;2.35;;
49840;SDS011;35738;49.890;5.930;2023-03-23T00:19:09;3.58;;;2.80;;
49840;SDS011;35738;49.890;5.930;2023-03-23T00:21:40;3.60;;;2.30;;
49840;SDS011;35738;49.890;5.930;2023-03-23T00:24:10;4.18;;;2.72;;
49840;SDS011;35738;49.890;5.930;2023-03-23T00:26:46;4.63;;;2.80;;
49840;SDS011;35738;49.890;5.930;2023-03-23T00:29:14;3.65;;;2.60;;
49840;SDS011;35738;49.890;5.930;2023-03-23T00:31:42;6.47;;;2.80;;
49840;SDS011;35738;49.890;5.930;2023-03-23T00:34:11;3.00;;;2.78;;
49840;SDS011;35738;49.890;5.930;2023-03-23T00:36:43;2.50;;;2.30;;
49840;SDS011;35738;49.890;5.930;2023-03-23T00:39:09;3.65;;;2.60;;
49840;SDS011;35738;49.890;5.930;2023-03-23T00:41:35;2.97;;;2.70;;
49840;SDS011;35738;49.890;5.930;2023-03-23T00:44:01;5.35;;;2.83;;
49840;SDS011;35738;49.890;5.930;2023-03-23T00:46:27;3.90;;;2.60;;
49840;SDS011;35738;49.890;5.930;2023-03-23T00:48:53;2.90;;;2.47;;
49840;SDS011;35738;49.890;5.930;2023-03-23T00:51:19;2.60;;;2.40;;
49840;SDS011;35738;49.890;5.930;2023-03-23T00:53:46;4.10;;;2.40;;
49840;SDS011;35738;49.890;5.930;2023-03-23T00:56:11;4.15;;;2.72;;
49840;SDS011;35738;49.890;5.930;2023-03-23T00:58:38;4.40;;;3.03;;
49840;SDS011;35738;49.890;5.930;2023-03-23T01:01:04;3.10;;;2.60;;
49840;SDS011;35738;49.890;5.930;2023-03-23T01:03:30;4.50;;;2.90;;
49840;SDS011;35738;49.890;5.930;2023-03-23T01:05:56;4.25;;;2.90;;
49840;SDS011;35738;49.890;5.930;2023-03-23T01:08:22;4.47;;;2.80;;
49840;SDS011;35738;49.890;5.930;2023-03-23T01:10:49;3.08;;;2.75;;
49840;SDS011;35738;49.890;5.930;2023-03-23T01:13:15;3.60;;;2.92;;
49840;SDS011;35738;49.890;5.930;2023-03-23T01:15:41;4.63;;;3.08;;
49840;SDS011;35738;49.890;5.930;2023-03-23T01:18:07;4.82;;;3.25;;
49840;SDS011;35738;49.890;5.930;2023-03-23T01:20:33;4.28;;;3.17;;
49840;SDS011;35738;49.890;5.930;2023-03-23T01:23:00;3.97;;;3.22;;
49840;SDS011;35738;49.890;5.930;2023-03-23T01:25:30;5.13;;;3.35;;
49840;SDS011;35738;49.890;5.930;2023-03-23T01:27:57;5.93;;;3.40;;
49840;SDS011;35738;49.890;5.930;2023-03-23T01:30:24;4.85;;;3.25;;
49840;SDS011;35738;49.890;5.930;2023-03-23T01:32:50;4.03;;;3.47;;
49840;SDS011;35738;49.890;5.930;2023-03-23T01:35:16;5.05;;;3.53;;
49840;SDS011;35738;49.890;5.930;2023-03-23T01:37:42;5.65;;;4.05;;
49840;SDS011;35738;49.890;5.930;2023-03-23T01:40:08;3.60;;;3.30;;
49840;SDS011;35738;49.890;5.930;2023-03-23T01:42:35;5.68;;;3.45;;
49840;SDS011;35738;49.890;5.930;2023-03-23T01:47:59;5.43;;;3.60;;
49840;SDS011;35738;49.890;5.930;2023-03-23T01:50:29;4.72;;;3.53;;
49840;SDS011;35738;49.890;5.930;2023-03-23T01:53:00;4.53;;;3.55;;
49840;SDS011;35738;49.890;5.930;2023-03-23T01:55:27;5.38;;;3.80;;
49840;SDS011;35738;49.890;5.930;2023-03-23T01:57:54;4.38;;;3.97;;
49840;SDS011;35738;49.890;5.930;2023-03-23T02:00:21;5.28;;;3.83;;
49840;SDS011;35738;49.890;5.930;2023-03-23T02:02:48;4.60;;;4.20;;
49840;SDS011;35738;49.890;5.930;2023-03-23T02:05:26;8.35;;;4.75;;
49840;SDS011;35738;49.890;5.930;2023-03-23T02:07:59;7.30;;;4.35;;
49840;SDS011;35738;49.890;5.930;2023-03-23T02:10:29;8.40;;;4.90;;
49840;SDS011;35738;49.890;5.930;2023-03-23T02:12:56;6.75;;;5.05;;
49840;SDS011;35738;49.890;5.930;2023-03-23T02:15:23;7.18;;;4.85;;
49840;SDS011;35738;49.890;5.930;2023-03-23T02:17:59;7.28;;;4.90;;
49840;SDS011;35738;49.890;5.930;2023-03-23T02:26:40;6.78;;;4.72;;
49840;SDS011;35738;49.890;5.930;2023-03-23T02:34:39;5.55;;;5.05;;
49840;SDS011;35738;49.890;5.930;2023-03-23T02:37:24;7.22;;;5.22;;
49840;SDS011;35738;49.890;5.930;2023-03-23T02:40:02;5.88;;;4.20;;
49840;SDS011;35738;49.890;5.930;2023-03-23T02:42:39;4.70;;;4.20;;
49840;SDS011;35738;49.890;5.930;2023-03-23T02:45:09;5.72;;;4.68;;
49840;SDS011;35738;49.890;5.930;2023-03-23T02:47:37;8.00;;;5.05;;
49840;SDS011;35738;49.890;5.930;2023-03-23T02:50:05;6.85;;;4.60;;
49840;SDS011;35738;49.890;5.930;2023-03-23T02:52:34;6.22;;;4.72;;
49840;SDS011;35738;49.890;5.930;2023-03-23T02:55:01;6.60;;;4.80;;
49840;SDS011;35738;49.890;5.930;2023-03-23T02:57:27;9.48;;;4.97;;
49840;SDS011;35738;49.890;5.930;2023-03-23T02:59:53;6.18;;;4.75;;
49840;SDS011;35738;49.890;5.930;2023-03-23T03:05:36;7.18;;;5.47;;
49840;SDS011;35738;49.890;5.930;2023-03-23T03:15:43;8.63;;;5.60;;
49840;SDS011;35738;49.890;5.930;2023-03-23T03:18:56;9.10;;;5.63;;
49840;SDS011;35738;49.890;5.930;2023-03-23T03:21:31;8.57;;;5.88;;
49840;SDS011;35738;49.890;5.930;2023-03-23T03:24:02;5.82;;;5.22;;
49840;SDS011;35738;49.890;5.930;2023-03-23T03:26:29;6.68;;;5.88;;
49840;SDS011;35738;49.890;5.930;2023-03-23T03:28:56;10.02;;;5.75;;
49840;SDS011;35738;49.890;5.930;2023-03-23T03:31:23;7.47;;;6.03;;
49840;SDS011;35738;49.890;5.930;2023-03-23T03:33:54;6.38;;;5.60;;
49840;SDS011;35738;49.890;5.930;2023-03-23T03:36:21;10.25;;;5.75;;
49840;SDS011;35738;49.890;5.930;2023-03-23T03:38:51;7.18;;;5.75;;
49840;SDS011;35738;49.890;5.930;2023-03-23T03:41:17;6.20;;;5.55;;
49840;SDS011;35738;49.890;5.930;2023-03-23T03:43:43;7.45;;;5.18;;
49840;SDS011;35738;49.890;5.930;2023-03-23T03:46:09;6.15;;;4.78;;
49840;SDS011;35738;49.890;5.930;2023-03-23T03:48:34;7.10;;;4.97;;
49840;SDS011;35738;49.890;5.930;2023-03-23T03:51:00;5.63;;;4.53;;
49840;SDS011;35738;49.890;5.930;2023-03-23T03:53:27;6.95;;;4.70;;
49840;SDS011;35738;49.890;5.930;2023-03-23T03:55:52;6.60;;;4.30;;
49840;SDS011;35738;49.890;5.930;2023-03-23T03:58:21;5.85;;;4.82;;
49840;SDS011;35738;49.890;5.930;2023-03-23T04:00:47;6.10;;;4.40;;
49840;SDS011;35738;49.890;5.930;2023-03-23T04:03:13;5.00;;;4.47;;
49840;SDS011;35738;49.890;5.930;2023-03-23T04:05:40;5.03;;;4.53;;
49840;SDS011;35738;49.890;5.930;2023-03-23T04:08:06;5.30;;;4.03;;
49840;SDS011;35738;49.890;5.930;2023-03-23T04:10:32;6.10;;;3.97;;
49840;SDS011;35738;49.890;5.930;2023-03-23T04:12:58;7.93;;;4.50;;
49840;SDS011;35738;49.890;5.930;2023-03-23T04:15:24;7.05;;;4.35;;
49840;SDS011;35738;49.890;5.930;2023-03-23T04:17:50;6.55;;;4.60;;
49840;SDS011;35738;49.890;5.930;2023-03-23T04:20:15;5.25;;;4.40;;
49840;SDS011;35738;49.890;5.930;2023-03-23T04:22:46;7.25;;;4.00;;
49840;SDS011;35738;49.890;5.930;2023-03-23T04:25:15;6.88;;;4.00;;
49840;SDS011;35738;49.890;5.930;2023-03-23T04:27:42;5.30;;;3.92;;
49840;SDS011;35738;49.890;5.930;2023-03-23T04:30:11;4.40;;;3.80;;
49840;SDS011;35738;49.890;5.930;2023-03-23T04:32:38;6.18;;;4.03;;
49840;SDS011;35738;49.890;5.930;2023-03-23T04:35:08;6.63;;;3.58;;
49840;SDS011;35738;49.890;5.930;2023-03-23T04:37:36;5.50;;;3.85;;
49840;SDS011;35738;49.890;5.930;2023-03-23T04:40:03;6.80;;;3.65;;
49840;SDS011;35738;49.890;5.930;2023-03-23T04:42:36;4.53;;;3.40;;
49840;SDS011;35738;49.890;5.930;2023-03-23T04:45:03;8.48;;;3.67;;
49840;SDS011;35738;49.890;5.930;2023-03-23T04:47:31;7.35;;;3.90;;
49840;SDS011;35738;49.890;5.930;2023-03-23T04:49:59;5.95;;;3.70;;
49840;SDS011;35738;49.890;5.930;2023-03-23T04:52:25;5.57;;;3.35;;
49840;SDS011;35738;49.890;5.930;2023-03-23T04:54:53;10.77;;;3.72;;
49840;SDS011;35738;49.890;5.930;2023-03-23T04:57:21;5.47;;;3.25;;
49840;SDS011;35738;49.890;5.930;2023-03-23T04:59:46;6.45;;;3.63;;
49840;SDS011;35738;49.890;5.930;2023-03-23T05:02:12;6.57;;;3.67;;
49840;SDS011;35738;49.890;5.930;2023-03-23T05:04:38;5.90;;;3.63;;
49840;SDS011;35738;49.890;5.930;2023-03-23T05:07:06;7.75;;;3.33;;
49840;SDS011;35738;49.890;5.930;2023-03-23T05:09:33;8.25;;;3.15;;
49840;SDS011;35738;49.890;5.930;2023-03-23T05:12:06;5.07;;;3.05;;
49840;SDS011;35738;49.890;5.930;2023-03-23T05:14:34;4.80;;;2.92;;
49840;SDS011;35738;49.890;5.930;2023-03-23T05:16:59;5.22;;;2.90;;
49840;SDS011;35738;49.890;5.930;2023-03-23T05:19:25;6.63;;;3.10;;
49840;SDS011;35738;49.890;5.930;2023-03-23T05:21:51;4.20;;;2.88;;
49840;SDS011;35738;49.890;5.930;2023-03-23T05:24:16;3.40;;;2.83;;
49840;SDS011;35738;49.890;5.930;2023-03-23T05:26:42;3.22;;;2.38;;
49840;SDS011;35738;49.890;5.930;2023-03-23T05:29:09;5.32;;;3.10;;
49840;SDS011;35738;49.890;5.930;2023-03-23T05:31:35;3.75;;;3.13;;
49840;SDS011;35738;49.890;5.930;2023-03-23T05:34:02;4.95;;;3.08;;
49840;SDS011;35738;49.890;5.930;2023-03-23T05:36:28;3.33;;;2.70;;
49840;SDS011;35738;49.890;5.930;2023-03-23T05:38:54;3.72;;;2.83;;
49840;SDS011;35738;49.890;5.930;2023-03-23T05:41:19;3.00;;;2.70;;
49840;SDS011;35738;49.890;5.930;2023-03-23T05:43:46;3.28;;;2.90;;
49840;SDS011;35738;49.890;5.930;2023-03-23T05:46:11;4.07;;;2.92;;
49840;SDS011;35738;49.890;5.930;2023-03-23T05:48:37;3.60;;;2.88;;
49840;SDS011;35738;49.890;5.930;2023-03-23T05:51:03;3.45;;;2.75;;
49840;SDS011;35738;49.890;5.930;2023-03-23T05:53:28;3.50;;;3.20;;
49840;SDS011;35738;49.890;5.930;2023-03-23T05:55:59;4.18;;;2.78;;
49840;SDS011;35738;49.890;5.930;2023-03-23T05:58:25;3.65;;;2.70;;
49840;SDS011;35738;49.890;5.930;2023-03-23T06:00:51;2.72;;;2.53;;
49840;SDS011;35738;49.890;5.930;2023-03-23T06:03:16;2.80;;;2.60;;
49840;SDS011;35738;49.890;5.930;2023-03-23T06:05:44;4.68;;;2.90;;
49840;SDS011;35738;49.890;5.930;2023-03-23T06:08:11;2.83;;;2.60;;
49840;SDS011;35738;49.890;5.930;2023-03-23T06:10:37;4.05;;;2.80;;
49840;SDS011;35738;49.890;5.930;2023-03-23T06:13:03;2.95;;;2.70;;
49840;SDS011;35738;49.890;5.930;2023-03-23T06:15:30;5.32;;;2.53;;
49840;SDS011;35738;49.890;5.930;2023-03-23T06:18:03;2.75;;;2.55;;
49840;SDS011;35738;49.890;5.930;2023-03-23T06:20:30;3.92;;;2.60;;
49840;SDS011;35738;49.890;5.930;2023-03-23T06:22:56;2.88;;;2.63;;
49840;SDS011;35738;49.890;5.930;2023-03-23T06:25:21;4.32;;;2.38;;
49840;SDS011;35738;49.890;5.930;2023-03-23T06:27:48;3.95;;;2.60;;
49840;SDS011;35738;49.890;5.930;2023-03-23T06:30:14;3.83;;;2.60;;
49840;SDS011;35738;49.890;5.930;2023-03-23T06:32:41;3.22;;;2.72;;
49840;SDS011;35738;49.890;5.930;2023-03-23T06:35:08;3.95;;;2.50;;
49840;SDS011;35738;49.890;5.930;2023-03-23T06:37:35;4.50;;;2.50;;
49840;SDS011;35738;49.890;5.930;2023-03-23T06:40:02;3.83;;;2.40;;
49840;SDS011;35738;49.890;5.930;2023-03-23T06:42:32;3.67;;;2.90;;
49840;SDS011;35738;49.890;5.930;2023-03-23T06:44:58;2.58;;;2.38;;
49840;SDS011;35738;49.890;5.930;2023-03-23T06:47:25;3.22;;;2.45;;
49840;SDS011;35738;49.890;5.930;2023-03-23T06:49:51;3.30;;;2.40;;
49840;SDS011;35738;49.890;5.930;2023-03-23T06:52:17;5.47;;;2.40;;
49840;SDS011;35738;49.890;5.930;2023-03-23T06:54:42;3.63;;;2.25;;
49840;SDS011;35738;49.890;5.930;2023-03-23T06:57:08;2.78;;;2.35;;
49840;SDS011;35738;49.890;5.930;2023-03-23T06:59:34;2.15;;;2.00;;
49840;SDS011;35738;49.890;5.930;2023-03-23T07:01:59;2.78;;;2.42;;
49840;SDS011;35738;49.890;5.930;2023-03-23T07:04:25;2.17;;;1.98;;
49840;SDS011;35738;49.890;5.930;2023-03-23T07:06:50;3.25;;;2.10;;
49840;SDS011;35738;49.890;5.930;2023-03-23T07:09:16;2.40;;;1.98;;
49840;SDS011;35738;49.890;5.930;2023-03-23T07:11:42;3.70;;;2.20;;
49840;SDS011;35738;49.890;5.930;2023-03-23T07:14:08;2.15;;;1.65;;
49840;SDS011;35738;49.890;5.930;2023-03-23T07:16:34;3.33;;;2.30;;
49840;SDS011;35738;49.890;5.930;2023-03-23T07:19:00;2.28;;;1.83;;
49840;SDS011;35738;49.890;5.930;2023-03-23T07:21:26;1.98;;;1.88;;
49840;SDS011;35738;49.890;5.930;2023-03-23T07:23:51;2.03;;;1.85;;
49840;SDS011;35738;49.890;5.930;2023-03-23T07:26:17;2.42;;;2.20;;
49840;SDS011;35738;49.890;5.930;2023-03-23T07:28:43;2.08;;;1.60;;
49840;SDS011;35738;49.890;5.930;2023-03-23T07:31:08;3.42;;;2.00;;
49840;SDS011;35738;49.890;5.930;2023-03-23T07:33:34;2.92;;;1.80;;
49840;SDS011;35738;49.890;5.930;2023-03-23T07:36:00;3.03;;;1.92;;
49840;SDS011;35738;49.890;5.930;2023-03-23T07:38:27;2.35;;;1.77;;
49840;SDS011;35738;49.890;5.930;2023-03-23T07:40:52;3.70;;;1.92;;
49840;SDS011;35738;49.890;5.930;2023-03-23T07:43:18;4.43;;;1.90;;
49840;SDS011;35738;49.890;5.930;2023-03-23T07:45:45;4.20;;;2.08;;
49840;SDS011;35738;49.890;5.930;2023-03-23T07:48:11;3.67;;;1.75;;
49840;SDS011;35738;49.890;5.930;2023-03-23T07:50:37;2.00;;;1.80;;
49840;SDS011;35738;49.890;5.930;2023-03-23T07:53:03;2.67;;;2.15;;
49840;SDS011;35738;49.890;5.930;2023-03-23T07:55:28;2.83;;;2.22;;
49840;SDS011;35738;49.890;5.930;2023-03-23T07:57:54;4.05;;;2.15;;
49840;SDS011;35738;49.890;5.930;2023-03-23T08:00:20;2.95;;;2.13;;
49840;SDS011;35738;49.890;5.930;2023-03-23T08:02:49;3.45;;;2.17;;
49840;SDS011;35738;49.890;5.930;2023-03-23T08:05:17;2.63;;;2.28;;
49840;SDS011;35738;49.890;5.930;2023-03-23T08:07:44;2.13;;;1.98;;
49840;SDS011;35738;49.890;5.930;2023-03-23T08:10:11;2.78;;;2.25;;
49840;SDS011;35738;49.890;5.930;2023-03-23T08:12:42;2.40;;;2.13;;
49840;SDS011;35738;49.890;5.930;2023-03-23T08:15:08;3.90;;;2.22;;
49840;SDS011;35738;49.890;5.930;2023-03-23T08:17:40;2.10;;;1.90;;
49840;SDS011;35738;49.890;5.930;2023-03-23T08:20:06;3.80;;;1.83;;
49840;SDS011;35738;49.890;5.930;2023-03-23T08:22:36;2.63;;;1.95;;
49840;SDS011;35738;49.890;5.930;2023-03-23T08:25:04;2.95;;;1.95;;
49840;SDS011;35738;49.890;5.930;2023-03-23T08:27:31;1.98;;;1.75;;
49840;SDS011;35738;49.890;5.930;2023-03-23T08:29:57;3.25;;;1.90;;
49840;SDS011;35738;49.890;5.930;2023-03-23T08:32:22;2.20;;;1.90;;
49840;SDS011;35738;49.890;5.930;2023-03-23T08:34:48;2.58;;;2.00;;
49840;SDS011;35738;49.890;5.930;2023-03-23T08:37:14;3.72;;;1.90;;
49840;SDS011;35738;49.890;5.930;2023-03-23T08:39:41;2.42;;;1.95;;
49840;SDS011;35738;49.890;5.930;2023-03-23T08:42:08;2.97;;;1.70;;
49840;SDS011;35738;49.890;5.930;2023-03-23T08:44:34;1.92;;;1.70;;
49840;SDS011;35738;49.890;5.930;2023-03-23T08:47:01;2.10;;;1.73;;
49840;SDS011;35738;49.890;5.930;2023-03-23T08:49:28;2.22;;;1.70;;
49840;SDS011;35738;49.890;5.930;2023-03-23T08:51:58;2.10;;;1.88;;
49840;SDS011;35738;49.890;5.930;2023-03-23T08:54:24;1.73;;;1.63;;
49840;SDS011;35738;49.890;5.930;2023-03-23T08:56:50;2.63;;;2.10;;
49840;SDS011;35738;49.890;5.930;2023-03-23T08:59:16;2.15;;;1.92;;
49840;SDS011;35738;49.890;5.930;2023-03-23T09:01:41;2.85;;;2.13;;
49840;SDS011;35738;49.890;5.930;2023-03-23T09:04:07;1.92;;;1.83;;
49840;SDS011;35738;49.890;5.930;2023-03-23T09:06:34;2.05;;;1.88;;
49840;SDS011;35738;49.890;5.930;2023-03-23T09:09:01;2.53;;;1.75;;
49840;SDS011;35738;49.890;5.930;2023-03-23T09:11:34;2.55;;;1.90;;
49840;SDS011;35738;49.890;5.930;2023-03-23T09:14:01;2.22;;;2.00;;
49840;SDS011;35738;49.890;5.930;2023-03-23T09:16:28;3.80;;;2.15;;
49840;SDS011;35738;49.890;5.930;2023-03-23T09:18:53;2.47;;;1.92;;
49840;SDS011;35738;49.890;5.930;2023-03-23T09:21:20;3.08;;;1.83;;
49840;SDS011;35738;49.890;5.930;2023-03-23T09:23:46;3.63;;;1.92;;
49840;SDS011;35738;49.890;5.930;2023-03-23T09:26:13;2.40;;;1.85;;
49840;SDS011;35738;49.890;5.930;2023-03-23T09:28:39;2.40;;;1.90;;
49840;SDS011;35738;49.890;5.930;2023-03-23T09:31:05;2.40;;;1.88;;
49840;SDS011;35738;49.890;5.930;2023-03-23T09:33:30;1.85;;;1.75;;
49840;SDS011;35738;49.890;5.930;2023-03-23T09:35:59;2.35;;;1.90;;
49840;SDS011;35738;49.890;5.930;2023-03-23T09:38:24;1.95;;;1.67;;
49840;SDS011;35738;49.890;5.930;2023-03-23T09:47:08;2.00;;;1.75;;
49840;SDS011;35738;49.890;5.930;2023-03-23T09:52:19;2.42;;;1.83;;
49840;SDS011;35738;49.890;5.930;2023-03-23T09:54:47;2.60;;;1.73;;
49840;SDS011;35738;49.890;5.930;2023-03-23T09:59:50;2.15;;;1.52;;
49840;SDS011;35738;49.890;5.930;2023-03-23T10:02:34;4.63;;;1.92;;
49840;SDS011;35738;49.890;5.930;2023-03-23T10:05:27;2.90;;;1.70;;
49840;SDS011;35738;49.890;5.930;2023-03-23T10:07:57;2.42;;;1.73;;
49840;SDS011;35738;49.890;5.930;2023-03-23T10:10:26;3.40;;;1.50;;
49840;SDS011;35738;49.890;5.930;2023-03-23T10:13:04;2.20;;;1.90;;
49840;SDS011;35738;49.890;5.930;2023-03-23T10:15:41;3.03;;;1.77;;
49840;SDS011;35738;49.890;5.930;2023-03-23T10:18:11;3.80;;;1.73;;
49840;SDS011;35738;49.890;5.930;2023-03-23T10:20:43;2.47;;;1.90;;
49840;SDS011;35738;49.890;5.930;2023-03-23T10:23:31;2.40;;;1.60;;
49840;SDS011;35738;49.890;5.930;2023-03-23T10:31:47;1.92;;;1.70;;
49840;SDS011;35738;49.890;5.930;2023-03-23T10:34:21;2.40;;;1.65;;
49840;SDS011;35738;49.890;5.930;2023-03-23T10:36:59;2.45;;;1.77;;
49840;SDS011;35738;49.890;5.930;2023-03-23T10:39:28;2.47;;;1.73;;
49840;SDS011;35738;49.890;5.930;2023-03-23T10:41:59;3.72;;;2.03;;
49840;SDS011;35738;49.890;5.930;2023-03-23T10:44:31;1.95;;;1.65;;
49840;SDS011;35738;49.890;5.930;2023-03-23T10:47:02;3.35;;;1.77;;
49840;SDS011;35738;49.890;5.930;2023-03-23T10:49:40;3.72;;;2.30;;
49840;SDS011;35738;49.890;5.930;2023-03-23T10:54:51;2.65;;;1.95;;
49840;SDS011;35738;49.890;5.930;2023-03-23T10:57:30;3.75;;;1.80;;
49840;SDS011;35738;49.890;5.930;2023-03-23T11:00:20;3.10;;;2.13;;
49840;SDS011;35738;49.890;5.930;2023-03-23T11:05:52;4.00;;;2.00;;
49840;SDS011;35738;49.890;5.930;2023-03-23T11:08:23;4.50;;;2.40;;
49840;SDS011;35738;49.890;5.930;2023-03-23T11:10:55;5.20;;;1.95;;
49840;SDS011;35738;49.890;5.930;2023-03-23T11:13:27;3.20;;;2.15;;
49840;SDS011;35738;49.890;5.930;2023-03-23T11:15:55;2.78;;;2.05;;
49840;SDS011;35738;49.890;5.930;2023-03-23T11:20:50;5.55;;;2.08;;
49840;SDS011;35738;49.890;5.930;2023-03-23T11:23:21;2.95;;;1.95;;
49840;SDS011;35738;49.890;5.930;2023-03-23T11:28:58;3.22;;;1.90;;
49840;SDS011;35738;49.890;5.930;2023-03-23T11:31:27;4.88;;;2.10;;
49840;SDS011;35738;49.890;5.930;2023-03-23T11:34:01;2.00;;;1.80;;
49840;SDS011;35738;49.890;5.930;2023-03-23T11:36:33;3.70;;;1.80;;
49840;SDS011;35738;49.890;5.930;2023-03-23T11:39:19;2.22;;;1.83;;
49840;SDS011;35738;49.890;5.930;2023-03-23T11:41:47;6.53;;;2.00;;
49840;SDS011;35738;49.890;5.930;2023-03-23T11:44:13;3.67;;;1.80;;
49840;SDS011;35738;49.890;5.930;2023-03-23T11:52:26;5.20;;;2.03;;
49840;SDS011;35738;49.890;5.930;2023-03-23T11:55:33;3.28;;;1.67;;
49840;SDS011;35738;49.890;5.930;2023-03-23T11:57:54;3.15;;;1.70;;
49840;SDS011;35738;49.890;5.930;2023-03-23T12:00:25;4.68;;;2.10;;
49840;SDS011;35738;49.890;5.930;2023-03-23T12:02:52;3.72;;;1.83;;
49840;SDS011;35738;49.890;5.930;2023-03-23T12:05:43;2.45;;;1.80;;
49840;SDS011;35738;49.890;5.930;2023-03-23T12:18:50;3.75;;;1.80;;
49840;SDS011;35738;49.890;5.930;2023-03-23T12:30:12;2.80;;;1.90;;
49840;SDS011;35738;49.890;5.930;2023-03-23T12:38:38;2.22;;;1.92;;
49840;SDS011;35738;49.890;5.930;2023-03-23T12:41:15;5.38;;;1.92;;
49840;SDS011;35738;49.890;5.930;2023-03-23T12:43:50;2.17;;;1.63;;
49840;SDS011;35738;49.890;5.930;2023-03-23T12:46:36;3.53;;;2.15;;
49840;SDS011;35738;49.890;5.930;2023-03-23T12:49:13;3.50;;;1.70;;
49840;SDS011;35738;49.890;5.930;2023-03-23T12:52:20;2.33;;;1.80;;
49840;SDS011;35738;49.890;5.930;2023-03-23T12:54:59;5.25;;;2.00;;
49840;SDS011;35738;49.890;5.930;2023-03-23T13:05:25;7.00;;;2.28;;
49840;SDS011;35738;49.890;5.930;2023-03-23T13:08:12;4.47;;;2.15;;
49840;SDS011;35738;49.890;5.930;2023-03-23T13:10:41;4.78;;;2.10;;
49840;SDS011;35738;49.890;5.930;2023-03-23T13:13:18;7.57;;;2.40;;
49840;SDS011;35738;49.890;5.930;2023-03-23T13:15:53;3.60;;;2.03;;
49840;SDS011;35738;49.890;5.930;2023-03-23T13:21:45;4.82;;;2.20;;
49840;SDS011;35738;49.890;5.930;2023-03-23T13:24:14;5.75;;;2.67;;
49840;SDS011;35738;49.890;5.930;2023-03-23T13:26:43;8.30;;;2.65;;
49840;SDS011;35738;49.890;5.930;2023-03-23T13:29:12;5.82;;;2.13;;
49840;SDS011;35738;49.890;5.930;2023-03-23T13:31:41;4.85;;;2.13;;
49840;SDS011;35738;49.890;5.930;2023-03-23T13:34:12;5.72;;;2.17;;
49840;SDS011;35738;49.890;5.930;2023-03-23T13:36:42;6.20;;;2.22;;
49840;SDS011;35738;49.890;5.930;2023-03-23T13:39:19;6.93;;;2.10;;
49840;SDS011;35738;49.890;5.930;2023-03-23T13:41:58;6.05;;;2.35;;
49840;SDS011;35738;49.890;5.930;2023-03-23T13:44:39;5.28;;;2.10;;
49840;SDS011;35738;49.890;5.930;2023-03-23T13:47:21;5.10;;;2.17;;
49840;SDS011;35738;49.890;5.930;2023-03-23T13:50:02;5.43;;;2.17;;
49840;SDS011;35738;49.890;5.930;2023-03-23T13:55:17;5.68;;;2.30;;
49840;SDS011;35738;49.890;5.930;2023-03-23T14:05:35;6.57;;;2.17;;
49840;SDS011;35738;49.890;5.930;2023-03-23T14:08:10;4.55;;;2.38;;
49840;SDS011;35738;49.890;5.930;2023-03-23T14:13:17;6.18;;;2.10;;
49840;SDS011;35738;49.890;5.930;2023-03-23T14:15:59;6.68;;;2.20;;
49840;SDS011;35738;49.890;5.930;2023-03-23T14:18:31;5.95;;;2.25;;
49840;SDS011;35738;49.890;5.930;2023-03-23T14:21:00;6.95;;;2.47;;
49840;SDS011;35738;49.890;5.930;2023-03-23T14:23:27;6.53;;;2.03;;
49840;SDS011;35738;49.890;5.930;2023-03-23T14:26:00;3.85;;;2.13;;
49840;SDS011;35738;49.890;5.930;2023-03-23T14:28:36;6.82;;;2.00;;
49840;SDS011;35738;49.890;5.930;2023-03-23T14:31:03;6.68;;;2.10;;
49840;SDS011;35738;49.890;5.930;2023-03-23T14:33:29;4.60;;;2.00;;
49840;SDS011;35738;49.890;5.930;2023-03-23T14:35:56;6.05;;;2.20;;
49840;SDS011;35738;49.890;5.930;2023-03-23T14:38:24;5.47;;;2.10;;
49840;SDS011;35738;49.890;5.930;2023-03-23T14:40:59;4.05;;;2.03;;
49840;SDS011;35738;49.890;5.930;2023-03-23T14:43:27;3.92;;;1.88;;
49840;SDS011;35738;49.890;5.930;2023-03-23T14:45:53;5.32;;;2.10;;
49840;SDS011;35738;49.890;5.930;2023-03-23T14:48:21;5.32;;;1.90;;
49840;SDS011;35738;49.890;5.930;2023-03-23T14:50:57;5.50;;;2.25;;
49840;SDS011;35738;49.890;5.930;2023-03-23T14:53:35;5.47;;;2.03;;
49840;SDS011;35738;49.890;5.930;2023-03-23T14:56:16;6.28;;;2.20;;
49840;SDS011;35738;49.890;5.930;2023-03-23T14:58:45;5.50;;;2.33;;
49840;SDS011;35738;49.890;5.930;2023-03-23T15:01:13;4.70;;;1.95;;
49840;SDS011;35738;49.890;5.930;2023-03-23T15:06:20;8.00;;;2.33;;
49840;SDS011;35738;49.890;5.930;2023-03-23T15:08:49;5.47;;;2.00;;
49840;SDS011;35738;49.890;5.930;2023-03-23T15:13:50;3.47;;;1.95;;
49840;SDS011;35738;49.890;5.930;2023-03-23T15:16:20;8.63;;;2.40;;
49840;SDS011;35738;49.890;5.930;2023-03-23T15:19:01;4.68;;;2.05;;
49840;SDS011;35738;49.890;5.930;2023-03-23T15:21:29;9.05;;;2.47;;
49840;SDS011;35738;49.890;5.930;2023-03-23T15:23:57;7.25;;;2.40;;
49840;SDS011;35738;49.890;5.930;2023-03-23T15:26:25;6.40;;;2.13;;
49840;SDS011;35738;49.890;5.930;2023-03-23T15:31:33;5.53;;;2.40;;
49840;SDS011;35738;49.890;5.930;2023-03-23T15:34:03;6.43;;;2.50;;
49840;SDS011;35738;49.890;5.930;2023-03-23T15:36:33;6.55;;;2.10;;
49840;SDS011;35738;49.890;5.930;2023-03-23T15:39:00;5.18;;;2.45;;
49840;SDS011;35738;49.890;5.930;2023-03-23T15:41:27;5.93;;;2.78;;
49840;SDS011;35738;49.890;5.930;2023-03-23T15:43:56;3.80;;;2.40;;
49840;SDS011;35738;49.890;5.930;2023-03-23T15:46:24;7.55;;;2.22;;
49840;SDS011;35738;49.890;5.930;2023-03-23T15:51:24;5.97;;;2.38;;
49840;SDS011;35738;49.890;5.930;2023-03-23T15:53:52;3.35;;;2.08;;
49840;SDS011;35738;49.890;5.930;2023-03-23T15:56:18;6.45;;;2.20;;
49840;SDS011;35738;49.890;5.930;2023-03-23T15:58:44;6.18;;;2.47;;
49840;SDS011;35738;49.890;5.930;2023-03-23T16:01:21;5.78;;;2.60;;
49840;SDS011;35738;49.890;5.930;2023-03-23T16:03:52;6.38;;;2.50;;
49840;SDS011;35738;49.890;5.930;2023-03-23T16:06:20;5.78;;;2.53;;
49840;SDS011;35738;49.890;5.930;2023-03-23T16:08:50;5.43;;;2.45;;
49840;SDS011;35738;49.890;5.930;2023-03-23T16:11:20;4.22;;;2.22;;
49840;SDS011;35738;49.890;5.930;2023-03-23T16:13:48;5.28;;;2.60;;
49840;SDS011;35738;49.890;5.930;2023-03-23T16:16:16;6.20;;;2.75;;
49840;SDS011;35738;49.890;5.930;2023-03-23T16:18:43;8.60;;;2.22;;
49840;SDS011;35738;49.890;5.930;2023-03-23T16:21:09;4.30;;;2.38;;
49840;SDS011;35738;49.890;5.930;2023-03-23T16:23:36;4.47;;;2.08;;
49840;SDS011;35738;49.890;5.930;2023-03-23T16:26:03;4.25;;;2.28;;
49840;SDS011;35738;49.890;5.930;2023-03-23T16:28:29;6.10;;;3.35;;
49840;SDS011;35738;49.890;5.930;2023-03-23T16:30:56;4.07;;;2.22;;
49840;SDS011;35738;49.890;5.930;2023-03-23T16:33:23;6.43;;;2.45;;
49840;SDS011;35738;49.890;5.930;2023-03-23T16:35:49;5.78;;;2.15;;
49840;SDS011;35738;49.890;5.930;2023-03-23T16:38:16;4.38;;;2.20;;
49840;SDS011;35738;49.890;5.930;2023-03-23T16:40:43;6.00;;;2.40;;
49840;SDS011;35738;49.890;5.930;2023-03-23T16:43:11;6.32;;;2.50;;
49840;SDS011;35738;49.890;5.930;2023-03-23T16:45:39;4.63;;;2.30;;
49840;SDS011;35738;49.890;5.930;2023-03-23T16:48:09;6.22;;;2.40;;
49840;SDS011;35738;49.890;5.930;2023-03-23T16:50:38;4.57;;;2.40;;
49840;SDS011;35738;49.890;5.930;2023-03-23T16:53:06;3.35;;;2.22;;
49840;SDS011;35738;49.890;5.930;2023-03-23T16:55:33;2.90;;;2.13;;
49840;SDS011;35738;49.890;5.930;2023-03-23T16:58:02;5.70;;;2.20;;
49840;SDS011;35738;49.890;5.930;2023-03-23T17:00:32;4.32;;;2.33;;